Time;durP1;ratioP1;P1;durP2;ratioP2;P2;SDS_P1;SDS_P2;PMS_P1;PMS_P2;Temp;Humidity;BMP_temperature;BMP_pressure;BME280_temperature;BME280_humidity;BME280_pressure;Samples;Min_cycle;Max_cycle;Signal;HPM_P1;HPM_P2
2021/12/03 00:00:29;;;;;;;3.03;1.17;;;10.80;98.60;;;;;;4979060;28;20053;-64
2021/12/03 00:02:55;;;;;;;4.68;1.40;;;10.80;97.50;;;;;;4995547;28;20043;-63
2021/12/03 00:05:21;;;;;;;3.30;1.17;;;10.60;98.50;;;;;;4978953;28;20069;-63
2021/12/03 00:07:47;;;;;;;1.65;0.90;;;10.60;98.50;;;;;;4979248;28;20060;-63
2021/12/03 00:10:14;;;;;;;3.22;1.38;;;10.70;97.10;;;;;;4979070;28;20558;-63
2021/12/03 00:12:40;;;;;;;3.70;1.10;;;;;;;;;;4995101;28;20054;-64
2021/12/03 00:15:07;;;;;;;2.58;0.98;;;10.90;98.60;;;;;;4996443;28;20057;-63
2021/12/03 00:17:32;;;;;;;2.33;1.08;;;10.60;98.50;;;;;;4978546;28;20128;-63
2021/12/03 00:19:58;;;;;;;3.63;1.27;;;10.60;97.40;;;;;;4996432;28;20098;-63
2021/12/03 00:22:24;;;;;;;2.97;1.08;;;;;;;;;;4996112;28;20449;-65
2021/12/03 00:24:50;;;;;;;2.47;0.93;;;10.70;98.40;;;;;;4978929;28;20061;-67
2021/12/03 00:27:16;;;;;;;3.47;1.08;;;10.60;97.30;;;;;;4978333;28;20488;-63
2021/12/03 00:29:41;;;;;;;3.50;1.02;;;10.70;98.40;;;;;;4978065;28;20121;-63
2021/12/03 00:32:08;;;;;;;2.80;0.93;;;10.80;98.40;;;;;;4978387;28;20042;-63
2021/12/03 00:34:33;;;;;;;3.15;1.25;;;10.60;98.30;;;;;;4996148;28;20068;-64
2021/12/03 00:36:59;;;;;;;3.10;1.02;;;10.70;98.40;;;;;;4962010;28;20050;-65
2021/12/03 00:39:26;;;;;;;2.80;0.75;;;;;;;;;;4996148;28;20460;-64
2021/12/03 00:41:59;;;;;;;2.33;1.00;;;10.70;98.30;;;;;;4978356;28;20399;-63
2021/12/03 00:44:25;;;;;;;2.13;0.85;;;10.40;97.40;;;;;;4962593;28;20047;-65
2021/12/03 00:46:51;;;;;;;2.13;0.80;;;10.60;98.30;;;;;;4974936;28;20492;-65
2021/12/03 00:49:17;;;;;;;3.17;1.15;;;10.50;98.30;;;;;;4958634;28;20058;-63
2021/12/03 00:51:43;;;;;;;2.38;0.93;;;10.50;98.30;;;;;;4974934;28;20047;-63
2021/12/03 00:54:08;;;;;;;4.72;1.05;;;10.60;98.30;;;;;;4976360;28;20042;-63
2021/12/03 00:56:34;;;;;;;2.97;1.13;;;10.40;98.20;;;;;;4958545;28;20087;-64
2021/12/03 00:59:00;;;;;;;4.25;1.20;;;;;;;;;;4958699;28;20053;-64
2021/12/03 01:01:26;;;;;;;3.85;1.20;;;10.60;98.20;;;;;;4958874;28;20058;-64
2021/12/03 01:03:52;;;;;;;2.33;0.80;;;10.60;97.10;;;;;;4975866;28;20057;-64
2021/12/03 01:06:17;;;;;;;2.45;0.90;;;10.70;98.20;;;;;;4958604;28;20399;-63
2021/12/03 01:08:43;;;;;;;1.77;0.80;;;10.60;97.60;;;;;;4958313;28;20051;-64
2021/12/03 01:11:09;;;;;;;2.47;1.00;;;10.60;98.20;;;;;;4974966;28;20042;-64
2021/12/03 01:13:35;;;;;;;2.75;0.73;;;10.70;98.20;;;;;;4974644;28;20047;-64
2021/12/03 01:16:02;;;;;;;2.90;1.10;;;10.60;97.10;;;;;;4974739;28;20049;-63
2021/12/03 01:18:27;;;;;;;3.83;0.82;;;10.60;98.20;;;;;;4958674;28;20385;-64
2021/12/03 01:20:53;;;;;;;4.18;1.27;;;10.50;98.20;;;;;;4975607;28;20046;-63
2021/12/03 01:23:19;;;;;;;2.38;1.10;;;10.60;97.00;;;;;;4975562;28;20049;-63
2021/12/03 01:25:44;;;;;;;4.18;1.27;;;10.60;98.10;;;;;;4974487;28;20134;-63
2021/12/03 01:28:12;;;;;;;2.95;1.00;;;10.70;97.00;;;;;;4974473;28;20500;-63
2021/12/03 01:30:38;;;;;;;3.13;1.00;;;10.60;98.10;;;;;;4958126;28;20059;-63
2021/12/03 01:33:05;;;;;;;4.35;1.30;;;10.60;98.10;;;;;;4975538;28;20489;-63
2021/12/03 01:35:31;;;;;;;2.83;1.10;;;10.60;98.10;;;;;;4957808;28;20149;-63
2021/12/03 01:37:57;;;;;;;2.75;1.10;;;10.40;98.00;;;;;;4974091;28;20106;-63
2021/12/03 01:40:25;;;;;;;2.60;1.00;;;10.70;97.00;;;;;;4974047;28;20058;-64
2021/12/03 01:42:51;;;;;;;3.00;1.00;;;10.60;98.10;;;;;;4942012;28;20058;-63
2021/12/03 01:45:19;;;;;;;2.50;1.05;;;10.70;98.10;;;;;;4975138;28;20042;-63
2021/12/03 01:47:46;;;;;;;2.95;0.95;;;10.60;98.10;;;;;;4974204;28;20046;-63
2021/12/03 01:50:12;;;;;;;3.30;1.10;;;10.30;98.00;;;;;;4973959;28;20073;-64
2021/12/03 01:52:38;;;;;;;3.38;1.10;;;10.50;98.00;;;;;;4974233;28;20047;-63
2021/12/03 01:55:05;;;;;;;2.95;1.10;;;10.60;98.10;;;;;;4941746;28;20560;-63
2021/12/03 01:57:31;;;;;;;3.80;1.13;;;;;;;;;;4957716;28;20105;-63
2021/12/03 01:59:57;;;;;;;2.05;1.10;;;10.50;98.00;;;;;;4974056;28;20034;-63
2021/12/03 02:02:22;;;;;;;3.20;1.23;;;10.90;98.10;;;;;;4975040;28;20053;-63
2021/12/03 02:04:48;;;;;;;3.20;1.25;;;10.60;97.90;;;;;;4957634;28;20071;-63
2021/12/03 02:07:14;;;;;;;4.00;1.17;;;10.50;97.90;;;;;;4975385;28;20038;-63
2021/12/03 02:09:40;;;;;;;5.82;1.30;;;10.40;98.00;;;;;;4973987;28;20034;-63
2021/12/03 02:12:06;;;;;;;2.55;0.90;;;10.60;97.90;;;;;;4974805;28;20054;-64
2021/12/03 02:14:32;;;;;;;2.50;1.00;;;10.50;97.80;;;;;;4975011;28;20042;-65
2021/12/03 02:16:58;;;;;;;4.43;1.10;;;10.40;96.70;;;;;;4973717;28;20485;-63
2021/12/03 02:19:23;;;;;;;4.97;1.40;;;10.50;97.80;;;;;;4975262;28;20493;-64
2021/12/03 02:21:49;;;;;;;3.17;1.08;;;10.40;97.90;;;;;;4973393;28;20095;-62
2021/12/03 02:24:15;;;;;;;4.00;1.08;;;10.50;96.80;;;;;;4957385;28;20138;-63
2021/12/03 02:26:42;;;;;;;2.42;1.10;;;;;;;;;;4973714;28;20400;-63
2021/12/03 02:29:07;;;;;;;4.22;1.38;;;10.60;96.80;;;;;;4973751;28;20042;-63
2021/12/03 02:31:34;;;;;;;3.50;1.50;;;;;;;;;;4957096;28;20070;-63
2021/12/03 02:34:00;;;;;;;3.97;1.10;;;10.40;97.80;;;;;;4974781;28;20054;-62
2021/12/03 02:36:25;;;;;;;2.88;1.15;;;10.60;97.80;;;;;;4989243;28;20467;-64
2021/12/03 02:38:51;;;;;;;2.63;1.13;;;10.30;97.70;;;;;;4994146;28;20485;-63
2021/12/03 02:41:17;;;;;;;3.17;1.40;;;10.40;97.80;;;;;;4994163;28;20138;-63
2021/12/03 02:43:43;;;;;;;3.42;1.10;;;;;;;;;;4976233;28;20134;-63
2021/12/03 02:46:09;;;;;;;2.75;1.13;;;10.60;97.80;;;;;;4960723;28;20121;-63
2021/12/03 02:48:36;;;;;;;3.25;1.10;;;10.40;96.00;;;;;;4993795;28;20129;-63
2021/12/03 02:51:02;;;;;;;2.95;1.10;;;10.50;97.80;;;;;;4976491;28;20130;-63
2021/12/03 02:53:28;;;;;;;4.10;1.50;;;10.40;97.70;;;;;;4998112;28;20458;-63
2021/12/03 02:55:54;;;;;;;3.33;1.05;;;10.70;97.80;;;;;;4980031;28;20050;-63
2021/12/03 02:58:19;;;;;;;3.72;1.10;;;10.60;97.80;;;;;;4997968;28;20042;-64
2021/12/03 03:00:46;;;;;;;4.13;1.05;;;10.40;96.60;;;;;;4980257;28;20120;-63
2021/12/03 03:03:12;;;;;;;2.95;1.02;;;;;;;;;;4997438;28;20507;-63
2021/12/03 03:05:38;;;;;;;1.88;0.88;;;10.50;97.80;;;;;;4980175;28;20046;-63
2021/12/03 03:08:04;;;;;;;3.70;1.20;;;10.50;97.70;;;;;;4997837;28;20041;-64
2021/12/03 03:10:31;;;;;;;3.50;1.10;;;10.50;97.80;;;;;;4980085;28;20121;-64
2021/12/03 03:12:58;;;;;;;3.33;1.40;;;10.40;96.60;;;;;;4980724;28;20039;-65
2021/12/03 03:15:24;;;;;;;4.57;1.23;;;10.50;97.70;;;;;;4963505;28;20129;-63
2021/12/03 03:17:49;;;;;;;3.72;1.17;;;10.50;96.60;;;;;;4997641;28;20125;-64
2021/12/03 03:20:15;;;;;;;2.92;0.98;;;10.60;97.70;;;;;;4997862;28;20488;-63
2021/12/03 03:22:42;;;;;;;2.70;1.10;;;10.80;97.80;;;;;;4980175;28;20054;-64
2021/12/03 03:25:13;;;;;;;4.15;1.30;;;10.30;96.50;;;;;;4980264;28;20377;-64
2021/12/03 03:27:39;;;;;;;3.33;0.90;;;10.60;97.70;;;;;;4997388;28;20104;-63
2021/12/03 03:30:08;;;;;;;3.28;1.13;;;10.50;96.70;;;;;;4979858;28;20050;-64
2021/12/03 03:32:34;;;;;;;5.15;1.33;;;;;;;;;;4964057;28;20034;-64
2021/12/03 03:35:00;;;;;;;2.88;1.10;;;10.30;97.80;;;;;;4997264;28;20038;-63
2021/12/03 03:37:26;;;;;;;4.50;1.33;;;10.40;97.70;;;;;;4979587;28;20514;-64
2021/12/03 03:39:51;;;;;;;3.08;1.13;;;10.50;97.70;;;;;;4979728;28;20118;-66
2021/12/03 03:42:17;;;;;;;3.22;1.20;;;10.40;97.70;;;;;;4979693;28;20058;-65
2021/12/03 03:44:43;;;;;;;3.00;0.95;;;10.30;97.60;;;;;;4979389;28;20503;-64
2021/12/03 03:47:09;;;;;;;4.30;1.60;;;10.60;97.80;;;;;;4979706;28;20515;-63
2021/12/03 03:49:35;;;;;;;3.70;1.30;;;10.40;97.70;;;;;;4996814;28;20057;-63
2021/12/03 03:52:01;;;;;;;3.60;1.30;;;10.40;97.60;;;;;;4979540;28;20058;-63
2021/12/03 03:54:26;;;;;;;4.55;1.35;;;10.40;97.60;;;;;;4979668;28;20404;-63
2021/12/03 03:56:52;;;;;;;2.72;1.35;;;;;;;;;;4996824;28;20112;-63
2021/12/03 03:59:18;;;;;;;6.35;1.42;;;10.60;97.70;;;;;;4980121;28;20046;-63
2021/12/03 04:01:45;;;;;;;3.13;1.50;;;10.40;97.70;;;;;;4962940;28;20057;-63
2021/12/03 04:04:11;;;;;;;6.05;1.50;;;;;;;;;;4995520;28;20140;-65
2021/12/03 04:06:37;;;;;;;4.07;1.90;;;10.40;97.70;;;;;;4996789;28;20547;-63
2021/12/03 04:09:03;;;;;;;4.55;1.70;;;10.70;97.70;;;;;;4996663;28;20045;-63
2021/12/03 04:11:28;;;;;;;4.25;1.95;;;10.60;97.70;;;;;;4996637;28;20046;-63
2021/12/03 04:13:54;;;;;;;3.35;1.70;;;10.70;96.60;;;;;;4996633;28;20047;-64
2021/12/03 04:16:20;;;;;;;5.50;2.17;;;;;;;;;;4978633;28;20097;-63
2021/12/03 04:18:47;;;;;;;5.78;2.30;;;;;;;;;;4996564;28;20074;-63
2021/12/03 04:21:13;;;;;;;4.35;2.05;;;10.20;97.60;;;;;;4978524;28;20050;-62
2021/12/03 04:23:39;;;;;;;5.57;2.30;;;10.40;97.70;;;;;;4996427;28;20054;-63
2021/12/03 04:26:05;;;;;;;5.43;2.40;;;10.40;96.60;;;;;;4963420;28;20050;-63
2021/12/03 04:28:31;;;;;;;5.22;2.65;;;10.50;97.80;;;;;;4978585;28;20050;-63
2021/12/03 04:30:56;;;;;;;6.45;2.90;;;10.40;97.70;;;;;;4979078;28;20089;-63
2021/12/03 04:33:22;;;;;;;7.63;3.08;;;10.40;97.70;;;;;;4978657;28;20134;-63
2021/12/03 04:35:48;;;;;;;6.00;3.10;;;10.40;97.70;;;;;;4996124;28;20053;-63
2021/12/03 04:38:14;;;;;;;6.97;3.15;;;10.40;97.70;;;;;;4978456;28;20485;-63
2021/12/03 04:40:40;;;;;;;7.35;3.95;;;10.60;97.70;;;;;;4978335;28;20133;-63
2021/12/03 04:43:06;;;;;;;8.25;3.53;;;10.40;96.60;;;;;;4995739;28;20619;-63
2021/12/03 04:45:32;;;;;;;7.75;3.30;;;;;;;;;;4996002;28;20129;-65
2021/12/03 04:47:58;;;;;;;7.25;4.15;;;;;;;;;;4995661;28;20042;-63
2021/12/03 04:50:26;;;;;;;6.35;3.55;;;10.50;97.70;;;;;;4995680;28;20189;-63
2021/12/03 04:52:52;;;;;;;7.25;3.75;;;10.40;97.70;;;;;;4995588;28;20055;-63
2021/12/03 04:55:18;;;;;;;7.03;3.88;;;10.60;97.30;;;;;;4958972;28;20054;-69
2021/12/03 04:57:44;;;;;;;7.68;3.70;;;;;;;;;;4978210;28;20507;-69
2021/12/03 05:00:13;;;;;;;6.40;3.60;;;10.10;97.60;;;;;;4995696;28;20046;-68
2021/12/03 05:02:39;;;;;;;7.70;4.00;;;;;;;;;;4961563;28;20105;-63
2021/12/03 05:05:06;;;;;;;7.20;3.88;;;10.40;97.60;;;;;;4978118;28;20444;-63
2021/12/03 05:08:17;;;;;;;6.80;3.78;;;10.40;97.70;;;;;;4978168;28;20049;-64
2021/12/03 05:10:18;;;;;;;8.23;4.40;;;10.40;97.60;;;;;;4950830;28;20496;-63
2021/12/03 05:12:44;;;;;;;6.82;4.22;;;10.20;96.40;;;;;;4995532;28;20049;-63
2021/12/03 05:15:10;;;;;;;7.15;4.00;;;9.90;97.50;;;;;;4977070;28;20420;-63
2021/12/03 05:17:35;;;;;;;6.80;4.35;;;10.20;97.60;;;;;;4995359;28;20101;-63
2021/12/03 05:20:02;;;;;;;7.32;4.13;;;10.20;96.40;;;;;;4995013;28;20061;-63
2021/12/03 05:22:28;;;;;;;6.30;3.88;;;10.30;97.50;;;;;;4995273;28;20074;-63
2021/12/03 05:24:54;;;;;;;9.07;4.13;;;10.20;96.40;;;;;;4995309;28;20092;-63
2021/12/03 05:27:20;;;;;;;5.90;4.05;;;10.60;97.60;;;;;;4961628;28;20043;-64
2021/12/03 05:29:46;;;;;;;7.82;4.35;;;10.40;97.50;;;;;;4977594;28;20053;-63
2021/12/03 05:32:12;;;;;;;9.13;4.53;;;10.10;97.50;;;;;;4977096;28;20046;-68
2021/12/03 05:34:38;;;;;;;6.82;4.40;;;10.30;97.50;;;;;;4974233;28;20053;-69
2021/12/03 05:37:06;;;;;;;7.65;4.10;;;10.30;96.40;;;;;;4957765;28;20082;-70
2021/12/03 05:39:32;;;;;;;7.63;4.13;;;;;;;;;;4942073;28;20081;-68
2021/12/03 05:41:58;;;;;;;7.78;4.53;;;;;;;;;;4975187;28;20050;-69
2021/12/03 05:44:24;;;;;;;6.85;4.38;;;10.30;97.40;;;;;;4973896;28;20054;-63
2021/12/03 05:46:50;;;;;;;6.75;4.22;;;;;;;;;;4977543;28;20089;-63
2021/12/03 05:49:17;;;;;;;6.45;4.03;;;;;;;;;;4961118;28;20050;-64
2021/12/03 05:51:43;;;;;;;8.38;4.65;;;10.20;97.40;;;;;;4973630;28;20090;-63
2021/12/03 05:54:09;;;;;;;11.82;4.97;;;10.20;97.40;;;;;;4946919;29;20063;-63
2021/12/03 05:56:35;;;;;;;8.40;4.65;;;9.90;97.50;;;;;;4919566;29;20051;-63
2021/12/03 05:59:01;;;;;;;7.03;4.57;;;;;;;;;;4919584;29;20083;-63
2021/12/03 06:01:27;;;;;;;7.50;4.60;;;;;;;;;;4936681;29;20111;-63
2021/12/03 06:03:53;;;;;;;7.38;4.57;;;10.50;97.40;;;;;;4936780;28;20401;-63
2021/12/03 06:06:19;;;;;;;6.47;4.60;;;10.30;97.30;;;;;;4973258;28;20047;-63
2021/12/03 06:08:45;;;;;;;8.23;4.80;;;10.20;96.20;;;;;;4973663;28;20047;-63
2021/12/03 06:11:11;;;;;;;7.07;4.47;;;;;;;;;;4973951;28;20038;-63
2021/12/03 06:13:39;;;;;;;7.70;4.78;;;10.10;96.20;;;;;;4973802;28;20445;-65
2021/12/03 06:16:09;;;;;;;7.78;5.07;;;10.20;97.30;;;;;;4971727;28;20137;-63
2021/12/03 06:18:35;;;;;;;6.68;4.15;;;;;;;;;;4973589;28;20490;-63
2021/12/03 06:21:02;;;;;;;8.38;4.30;;;;;;;;;;4957584;28;20038;-63
2021/12/03 06:23:28;;;;;;;7.88;4.80;;;10.20;97.20;;;;;;4973630;28;20054;-63
2021/12/03 06:25:55;;;;;;;7.25;4.53;;;10.20;96.10;;;;;;4968629;28;20405;-63
2021/12/03 06:28:21;;;;;;;8.48;4.70;;;10.20;97.30;;;;;;4955554;28;20093;-63
2021/12/03 06:30:47;;;;;;;7.88;4.82;;;10.30;96.20;;;;;;4954116;29;20059;-63
2021/12/03 06:33:12;;;;;;;8.00;4.75;;;10.20;97.30;;;;;;4953942;29;20043;-63
2021/12/03 06:35:38;;;;;;;7.85;4.65;;;10.10;97.20;;;;;;4953938;29;20051;-63
2021/12/03 06:38:04;;;;;;;8.88;4.40;;;10.30;96.20;;;;;;4970930;28;20088;-64
2021/12/03 06:40:30;;;;;;;9.02;4.88;;;10.20;97.20;;;;;;4973500;28;20465;-63
2021/12/03 06:42:55;;;;;;;7.97;4.60;;;10.20;97.30;;;;;;4957254;28;20525;-65
2021/12/03 06:45:21;;;;;;;9.63;4.72;;;10.20;97.20;;;;;;4973159;28;20087;-64
2021/12/03 06:47:47;;;;;;;6.40;4.22;;;10.20;97.20;;;;;;4964739;28;20122;-63
2021/12/03 06:50:17;;;;;;;8.55;5.00;;;10.30;97.30;;;;;;4960543;28;20130;-63
2021/12/03 06:52:46;;;;;;;9.90;4.13;;;10.20;97.30;;;;;;4974374;28;20050;-64
2021/12/03 06:55:15;;;;;;;6.75;4.43;;;10.30;96.20;;;;;;4973350;28;20094;-63
2021/12/03 06:57:44;;;;;;;8.00;4.60;;;10.30;97.30;;;;;;4957207;28;20046;-63
2021/12/03 07:00:14;;;;;;;7.60;4.05;;;10.30;97.40;;;;;;4957372;28;20451;-63
2021/12/03 07:02:40;;;;;;;7.50;4.45;;;;;;;;;;4957335;28;20407;-63
2021/12/03 07:05:07;;;;;;;6.90;4.10;;;10.30;97.30;;;;;;4974227;28;20403;-63
2021/12/03 07:07:33;;;;;;;6.57;3.95;;;10.40;96.20;;;;;;4957079;28;20046;-64
2021/12/03 07:10:00;;;;;;;8.05;4.65;;;10.30;97.30;;;;;;4953925;28;20047;-63
2021/12/03 07:12:26;;;;;;;10.10;4.45;;;10.30;97.30;;;;;;4973212;28;20059;-63
2021/12/03 07:14:52;;;;;;;7.80;4.10;;;;;;;;;;4974208;28;20117;-63
2021/12/03 07:17:18;;;;;;;6.25;4.40;;;10.10;96.40;;;;;;4974142;28;20050;-64
2021/12/03 07:19:43;;;;;;;8.75;4.10;;;10.20;97.30;;;;;;4974062;28;20105;-63
2021/12/03 07:22:09;;;;;;;6.03;4.05;;;10.20;97.30;;;;;;4974699;28;20494;-63
2021/12/03 07:24:35;;;;;;;7.50;4.25;;;10.10;97.40;;;;;;4956786;28;20055;-63
2021/12/03 07:27:01;;;;;;;7.20;4.22;;;10.50;97.40;;;;;;4974172;28;20043;-63
2021/12/03 07:29:28;;;;;;;7.10;4.55;;;10.20;97.20;;;;;;4972774;28;20475;-63
2021/12/03 07:31:54;;;;;;;7.85;4.13;;;10.10;97.20;;;;;;4937312;29;20055;-63
2021/12/03 07:34:20;;;;;;;8.00;4.10;;;10.10;97.20;;;;;;4954730;29;20050;-63
2021/12/03 07:36:46;;;;;;;6.88;4.03;;;10.20;97.30;;;;;;4937597;28;20062;-63
2021/12/03 07:39:11;;;;;;;8.68;4.80;;;10.20;97.20;;;;;;4958189;29;20453;-63
2021/12/03 07:41:40;;;;;;;7.60;3.90;;;10.20;97.20;;;;;;4971519;28;20043;-64
2021/12/03 07:44:07;;;;;;;6.72;3.78;;;10.40;96.10;;;;;;4976226;28;20047;-63
2021/12/03 07:46:33;;;;;;;6.70;4.00;;;9.70;97.10;;;;;;4976499;28;20047;-64
2021/12/03 07:48:59;;;;;;;8.32;4.10;;;10.50;97.40;;;;;;4976369;28;20082;-63
2021/12/03 07:51:26;;;;;;;7.13;3.88;;;10.20;97.20;;;;;;4993179;28;20464;-63
2021/12/03 07:53:52;;;;;;;6.43;3.80;;;10.20;97.20;;;;;;4963483;28;20042;-63
2021/12/03 07:56:18;;;;;;;6.43;3.65;;;10.10;97.10;;;;;;4963098;28;20104;-63
2021/12/03 07:58:43;;;;;;;7.20;3.60;;;10.20;97.20;;;;;;4978929;28;20042;-63
2021/12/03 08:01:09;;;;;;;6.13;3.70;;;9.90;97.20;;;;;;4979442;28;20090;-63
2021/12/03 08:03:35;;;;;;;7.10;3.53;;;10.30;96.10;;;;;;4996087;28;20487;-63
2021/12/03 08:06:07;;;;;;;8.30;4.10;;;10.10;97.10;;;;;;4978801;28;20054;-63
2021/12/03 08:08:33;;;;;;;7.28;3.55;;;10.00;96.00;;;;;;4979293;28;20403;-63
2021/12/03 08:10:58;;;;;;;7.30;4.90;;;10.00;97.10;;;;;;4996680;28;20042;-63
2021/12/03 08:13:24;;;;;;;6.55;3.95;;;10.20;97.20;;;;;;4996230;28;20038;-63
2021/12/03 08:15:50;;;;;;;7.82;3.70;;;;;;;;;;4978706;28;20051;-63
2021/12/03 08:18:17;;;;;;;7.03;3.90;;;10.20;97.10;;;;;;4996311;28;20046;-63
2021/12/03 08:20:43;;;;;;;6.97;4.13;;;9.90;96.00;;;;;;4978908;28;20050;-63
2021/12/03 08:23:10;;;;;;;5.95;3.78;;;;;;;;;;4996148;28;20050;-65
2021/12/03 08:25:35;;;;;;;6.90;3.55;;;10.00;95.90;;;;;;4996462;28;20078;-63
2021/12/03 08:28:01;;;;;;;7.50;4.13;;;;;;;;;;4978920;28;20521;-64
2021/12/03 08:30:29;;;;;;;8.32;3.78;;;10.10;97.10;;;;;;4978619;28;20125;-65
2021/12/03 08:32:56;;;;;;;7.88;4.07;;;10.20;96.00;;;;;;4978679;28;20116;-63
2021/12/03 08:35:22;;;;;;;6.03;3.50;;;10.20;97.10;;;;;;4978256;28;20121;-63
2021/12/03 08:37:49;;;;;;;7.05;4.07;;;10.10;96.00;;;;;;4996153;28;20133;-63
2021/12/03 08:40:15;;;;;;;7.13;4.00;;;10.10;97.10;;;;;;4962770;28;20053;-63
2021/12/03 08:42:41;;;;;;;7.53;4.00;;;10.20;97.10;;;;;;4962144;28;20505;-63
2021/12/03 08:45:07;;;;;;;6.75;3.90;;;10.10;97.00;;;;;;4977841;28;20053;-63
2021/12/03 08:47:35;;;;;;;6.10;3.90;;;10.10;97.00;;;;;;4978689;28;20100;-64
2021/12/03 08:50:04;;;;;;;7.13;4.20;;;;;;;;;;4977430;28;20054;-63
2021/12/03 08:54:56;;;;;;;9.13;4.25;;;;;;;;;;4977986;28;20427;-64
2021/12/03 08:57:29;;;;;;;7.00;3.75;;;10.50;97.10;;;;;;4995500;28;20054;-63
2021/12/03 08:59:56;;;;;;;12.50;4.40;;;10.20;97.00;;;;;;4995496;28;20065;-64
2021/12/03 09:02:21;;;;;;;9.68;4.55;;;10.30;97.00;;;;;;4977896;28;20050;-63
2021/12/03 09:04:48;;;;;;;8.20;4.22;;;10.10;97.00;;;;;;4962062;28;20392;-63
2021/12/03 09:07:14;;;;;;;9.43;4.18;;;10.30;97.00;;;;;;4961502;28;20200;-63
2021/12/03 09:09:40;;;;;;;10.52;4.90;;;;;;;;;;4977790;28;20085;-63
2021/12/03 09:12:07;;;;;;;9.15;4.75;;;;;;;;;;4962831;28;20460;-66
2021/12/03 09:14:43;;;;;;;8.30;4.68;;;10.10;95.80;;;;;;4978293;28;20054;-63
2021/12/03 09:22:41;;;;;;;9.05;5.00;;;10.30;97.00;;;;;;4958084;28;20050;-67
2021/12/03 09:25:10;;;;;;;9.43;4.95;;;10.30;97.00;;;;;;4974345;28;20055;-64
2021/12/03 09:27:36;;;;;;;7.85;4.57;;;10.20;97.00;;;;;;4958867;28;20046;-63
2021/12/03 09:30:05;;;;;;;10.65;5.50;;;10.00;96.90;;;;;;4974314;28;20043;-63
2021/12/03 09:32:32;;;;;;;9.07;5.40;;;10.40;97.00;;;;;;4959921;28;20429;-66
2021/12/03 09:35:00;;;;;;;10.57;5.40;;;10.20;97.00;;;;;;4961493;28;20399;-67
2021/12/03 09:37:25;;;;;;;9.40;5.70;;;10.20;96.90;;;;;;4977894;28;20112;-68
2021/12/03 09:39:51;;;;;;;11.30;5.88;;;10.20;96.90;;;;;;4994671;28;20130;-67
2021/12/03 09:42:21;;;;;;;9.75;5.88;;;;;;;;;;4960836;28;20082;-68
2021/12/03 09:44:50;;;;;;;12.23;6.25;;;10.10;96.90;;;;;;4961936;28;20125;-66
2021/12/03 09:47:16;;;;;;;11.95;6.45;;;;;;;;;;4977914;28;20133;-63
2021/12/03 09:49:43;;;;;;;11.32;6.10;;;10.10;96.90;;;;;;4960898;28;20077;-64
2021/12/03 09:52:28;;;;;;;10.32;6.82;;;10.30;97.00;;;;;;4960898;28;20050;-63
2021/12/03 09:55:02;;;;;;;11.85;7.10;;;10.20;97.00;;;;;;4963350;28;20116;-63
2021/12/03 10:06:30;;;;;;;11.80;7.20;;;10.10;95.70;;;;;;4922529;29;20163;-69
2021/12/03 10:27:49;;;;;;;17.80;9.13;;;10.90;95.90;;;;;;4937303;28;20078;-67
2021/12/03 10:41:18;;;;;;;20.23;8.95;;;10.30;97.10;;;;;;4878668;29;20052;-63
2021/12/03 10:57:41;;;;;;;28.45;10.18;;;;;;;;;;4877486;29;20044;-63
2021/12/03 11:25:19;;;;;;;35.72;10.38;;;10.50;96.10;;;;;;4977452;28;20050;-64
2021/12/03 11:46:40;;;;;;;21.25;7.97;;;10.20;97.10;;;;;;4930953;29;20498;-63
2021/12/03 12:03:53;;;;;;;18.50;7.57;;;10.30;97.00;;;;;;4935917;29;20055;-64
2021/12/03 14:33:27;;;;;;;8.93;2.80;;;;;;;;;;4941133;28;20058;-67
2021/12/03 14:37:48;;;;;;;8.90;3.30;;;9.90;97.70;;;;;;4960338;28;20408;-68
2021/12/03 14:40:37;;;;;;;7.70;3.20;;;9.80;97.60;;;;;;4944019;28;20092;-70
2021/12/03 14:45:54;;;;;;;6.32;3.08;;;10.20;97.70;;;;;;4960776;28;20054;-70
2021/12/03 14:48:51;;;;;;;7.97;2.80;;;10.10;96.60;;;;;;4965445;28;20061;-70
2021/12/03 14:57:57;;;;;;;8.75;3.15;;;10.00;96.70;;;;;;4980004;28;20124;-69
2021/12/03 15:21:54;;;;;;;6.97;3.03;;;10.30;97.80;;;;;;5068453;28;20458;-70
2021/12/03 15:27:31;;;;;;;6.38;3.00;;;10.30;96.90;;;;;;5051408;28;20053;-71
2021/12/03 15:32:49;;;;;;;8.87;2.77;;;;;;;;;;5035978;28;20063;-72
2021/12/03 15:54:27;;;;;;;9.48;2.83;;;10.50;98.10;;;;;;5050077;28;20049;-74
2021/12/03 16:04:25;;;;;;;8.35;3.15;;;;;;;;;;5109985;28;20044;-73
2021/12/03 16:07:08;;;;;;;5.82;3.10;;;;;;;;;;5093775;28;20045;-77
2021/12/03 16:10:08;;;;;;;7.07;3.00;;;10.50;98.00;;;;;;5088600;28;20128;-73
2021/12/03 16:17:46;;;;;;;9.80;3.58;;;10.50;97.10;;;;;;5058509;28;20058;-79
2021/12/03 16:51:50;;;;;;;6.80;3.97;;;10.50;98.40;;;;;;5080501;28;20335;-78
2021/12/03 16:54:23;;;;;;;9.68;4.55;;;;;;;;;;5078790;28;20085;-78
2021/12/03 16:56:51;;;;;;;10.07;5.00;;;10.60;98.60;;;;;;5094482;28;20123;-79
2021/12/03 16:59:18;;;;;;;10.85;4.90;;;;;;;;;;5094344;28;20572;-72
2021/12/03 17:01:52;;;;;;;8.68;5.13;;;10.50;97.80;;;;;;5095523;28;20035;-67
2021/12/03 18:00:14;;;;;;;8.43;4.90;;;10.30;99.00;;;;;;5015989;28;20049;-70
2021/12/03 18:02:49;;;;;;;6.88;4.88;;;10.80;99.10;;;;;;5034955;28;20059;-70
2021/12/03 18:08:09;;;;;;;7.65;4.57;;;10.40;99.10;;;;;;5035374;28;20049;-75
2021/12/03 18:56:42;;;;;;;8.30;5.82;;;;;;;;;;5071707;28;20053;-75
2021/12/03 18:59:09;;;;;;;8.20;5.88;;;;;;;;;;5071437;28;20054;-76
2021/12/03 19:01:36;;;;;;;9.70;5.65;;;10.70;99.20;;;;;;5087317;28;20059;-74
2021/12/03 19:06:45;;;;;;;7.38;5.47;;;10.50;99.20;;;;;;5092642;28;20040;-74
2021/12/03 19:11:50;;;;;;;7.40;5.75;;;;;;;;;;5075244;28;20424;-75
2021/12/03 19:14:17;;;;;;;8.70;6.25;;;;;;;;;;5076032;28;20083;-75
2021/12/03 19:16:43;;;;;;;8.38;6.20;;;;;;;;;;5074751;28;20055;-73
2021/12/03 19:19:11;;;;;;;8.40;6.15;;;;;;;;;;5073908;28;20101;-75
2021/12/03 19:21:40;;;;;;;9.10;6.55;;;10.50;99.30;;;;;;5058324;28;20112;-76
2021/12/03 19:24:07;;;;;;;8.05;6.20;;;10.50;98.10;;;;;;5091138;28;20048;-73
2021/12/03 19:26:33;;;;;;;8.43;6.85;;;10.60;97.70;;;;;;5057818;28;20044;-70
2021/12/03 19:29:00;;;;;;;9.13;6.15;;;10.70;99.40;;;;;;5074527;28;20052;-68
2021/12/03 19:31:27;;;;;;;9.25;6.45;;;10.70;99.40;;;;;;5091085;28;20048;-70
2021/12/03 19:33:53;;;;;;;8.30;6.22;;;;;;;;;;5074147;28;20083;-70
2021/12/03 19:36:24;;;;;;;8.45;6.75;;;10.50;99.40;;;;;;5074197;28;20106;-70
2021/12/03 19:38:50;;;;;;;9.68;7.55;;;10.60;99.40;;;;;;5074871;28;20385;-68
2021/12/03 19:41:22;;;;;;;8.45;6.75;;;10.60;99.40;;;;;;5057658;28;20056;-75
2021/12/03 19:43:53;;;;;;;8.88;6.63;;;10.50;98.60;;;;;;5059107;28;20059;-74
2021/12/03 19:46:23;;;;;;;8.93;6.15;;;10.50;99.00;;;;;;5074907;28;20500;-74
2021/12/03 19:48:57;;;;;;;8.80;6.75;;;;;;;;;;5090953;28;20086;-72
2021/12/03 19:51:26;;;;;;;8.95;6.57;;;10.60;98.00;;;;;;5076756;28;20076;-73
2021/12/03 19:53:57;;;;;;;8.57;6.90;;;10.30;99.30;;;;;;5094900;28;20052;-74
2021/12/03 19:56:24;;;;;;;8.85;7.28;;;;;;;;;;5078872;28;20048;-74
2021/12/03 19:58:50;;;;;;;8.43;6.93;;;;;;;;;;5094323;28;20048;-74
2021/12/03 20:01:16;;;;;;;9.57;7.10;;;;;;;;;;5094860;28;20048;-75
2021/12/03 20:03:43;;;;;;;10.15;7.13;;;;;;;;;;5093656;28;20074;-74
2021/12/03 20:06:10;;;;;;;9.02;7.28;;;;;;;;;;5094439;28;20048;-72
2021/12/03 20:08:36;;;;;;;9.10;7.53;;;;;;;;;;5096024;28;20422;-75
2021/12/03 20:11:05;;;;;;;9.98;8.05;;;;;;;;;;5095584;28;20083;-75
2021/12/03 20:13:31;;;;;;;9.55;7.70;;;;;;;;;;5094377;28;20135;-74
2021/12/03 20:16:10;;;;;;;9.90;7.65;;;10.30;99.50;;;;;;5093906;28;20540;-73
2021/12/03 20:18:43;;;;;;;9.68;7.50;;;;;;;;;;5073817;28;20056;-72
2021/12/03 20:21:11;;;;;;;9.63;7.63;;;;;;;;;;5058270;28;20059;-74
2021/12/03 20:23:57;;;;;;;9.40;7.20;;;10.60;99.60;;;;;;5073970;28;20052;-75
2021/12/03 20:26:35;;;;;;;10.57;7.63;;;10.80;98.00;;;;;;5078968;28;20055;-70
2021/12/03 20:29:15;;;;;;;10.68;7.65;;;10.50;99.60;;;;;;5058839;28;20056;-75
2021/12/03 20:31:46;;;;;;;10.75;8.00;;;;;;;;;;5059147;28;20478;-75
2021/12/03 20:36:50;;;;;;;10.45;7.68;;;10.90;99.70;;;;;;5093582;28;20080;-75
2021/12/03 20:41:55;;;;;;;10.68;7.88;;;;;;;;;;5089049;28;20139;-70
2021/12/03 20:47:20;;;;;;;10.98;8.25;;;10.90;98.90;;;;;;5074793;28;20056;-73
2021/12/03 21:13:49;;;;;;;13.60;9.23;;;10.60;99.80;;;;;;5015270;28;20473;-75
2021/12/03 21:21:33;;;;;;;11.30;9.10;;;10.60;98.90;;;;;;5034992;28;20130;-75
2021/12/03 21:24:00;;;;;;;12.32;9.65;;;;;;;;;;5019166;28;20311;-73
2021/12/03 21:26:30;;;;;;;13.45;9.48;;;;;;;;;;5019194;28;20064;-74
2021/12/03 21:29:10;;;;;;;11.45;8.45;;;;;;;;;;5018977;28;20079;-75
2021/12/03 21:31:41;;;;;;;12.25;9.20;;;;;;;;;;5020087;28;20060;-74
2021/12/03 21:42:03;;;;;;;12.93;9.13;;;10.60;99.90;;;;;;5034979;28;20238;-70
2021/12/03 21:44:30;;;;;;;13.63;9.25;;;;;;;;;;5030291;28;20075;-72
2021/12/03 21:46:56;;;;;;;13.18;8.82;;;10.70;99.90;;;;;;5041613;28;20123;-74
2021/12/03 21:49:22;;;;;;;11.70;8.65;;;;;;;;;;5017265;28;20530;-69
2021/12/03 21:51:48;;;;;;;13.68;8.77;;;;;;;;;;5070059;28;20056;-74
2021/12/03 21:54:14;;;;;;;14.15;9.10;;;;;;;;;;5092417;28;20054;-72